Kenai, AK (99611)

10:25 PM AKDT on September 27, 2016 (GMT -0800)
coastal | | Change Station

Elev 90 ft 60.57 °N, 151.29 °W | Updated 22 seconds ago

Clear
Clear
31.5 °F
Feels Like 32 °F
N
0.0
Wind Variable Wind from SE

Today
High -- | Low -- °F
--% Chance of Precip.
Yesterday
High -- | Low -- °F
Precip. -- in
Pressure 30.29 in
Visibility 10.0 miles
Clouds Clear
Windchill 32 °F
Dew Point 29 °F
Humidity 93%
Rainfall 0.00 in
Snow Depth Not available.
8:02 AM 7:46 PM
Waning Crescent, 7% visible
METAR PAEN 280553Z 00000KT 10SM CLR 03/01 A3028 RMK AO2 SLP257 T00280011 10117 20028 53017
Pressure 30.29 in
Visibility 10.0 miles
Clouds Clear
Windchill 32 °F
Dew Point 29 °F
Humidity 93%
Rainfall 0.00 in
Snow Depth Not available.
8:02 AM 7:46 PM
Waning Crescent, 7% visible
METAR PAEN 280553Z 00000KT 10SM CLR 03/01 A3028 RMK AO2 SLP257 T00280011 10117 20028 53017

10-Day Weather Forecast

Almanac

Astronomy

Sep. 27, 2016 Rise Set
Actual Time
Civil Twilight
Nautical Twilight
Astronomical Twilight
Moon
Length of Visible Light
Length of Day
Tomorrow will be .
, % of the Moon is Illuminated

Today's Extremes

State Highs State Lows

Community

WunderPhotos

Upload Photos

1,942,216 photos uploaded!

WunderBlog® & News

Nearby

Air Quality

  Air Quality AQ Index Pollutant
Not available.

Snow Depth

Station Depth Elevation

Earthquake Activity

City Distance Mag. Time & Date
Minimum magnitude displayed is 2.5.

Coastal Water Temperatures

Place Temperature

Stations

Nearby Weather Stations

Station Location Temp. Windchill Dew Point Humidity Wind Precip. Elev Updated Type
                   

Watches & Warnings

There are currently no watches in effect.